Time;durP1;ratioP1;P1;durP2;ratioP2;P2;SDS_P1;SDS_P2;PMS_P1;PMS_P2;Temp;Humidity;BMP_temperature;BMP_pressure;BME280_temperature;BME280_humidity;BME280_pressure;Samples;Min_cycle;Max_cycle;Signal;HPM_P1;HPM_P2
2021/03/08 00:01:32;;;;;;;16.58;9.57;;;3.50;62.40;;;;;;5084230;28;27390;-65
2021/03/08 00:04:17;;;;;;;16.80;10.00;;;3.50;62.60;;;;;;5083884;28;27344;-66
2021/03/08 00:07:01;;;;;;;15.30;9.70;;;3.40;62.70;;;;;;5080027;28;27412;-66
2021/03/08 00:09:46;;;;;;;18.00;10.75;;;3.40;63.00;;;;;;5080599;28;27312;-66
2021/03/08 00:12:31;;;;;;;18.10;10.85;;;3.30;63.00;;;;;;5087696;28;27392;-66
2021/03/08 00:15:17;;;;;;;21.67;10.43;;;3.30;63.00;;;;;;5087383;28;27332;-66
2021/03/08 00:18:01;;;;;;;17.02;10.13;;;3.30;63.00;;;;;;5087601;28;27367;-65
2021/03/08 00:20:46;;;;;;;16.75;10.20;;;3.20;63.00;;;;;;5085386;28;27420;-65
2021/03/08 00:23:30;;;;;;;17.13;10.40;;;3.20;63.00;;;;;;5087628;28;26896;-65
2021/03/08 00:26:15;;;;;;;15.88;10.18;;;3.20;63.10;;;;;;5087191;28;27327;-65
2021/03/08 00:28:59;;;;;;;16.65;10.48;;;3.10;63.10;;;;;;5087225;28;27508;-65
2021/03/08 00:31:44;;;;;;;17.75;10.30;;;3.10;63.20;;;;;;5087465;28;27383;-64
2021/03/08 00:34:28;;;;;;;17.23;10.18;;;3.00;63.20;;;;;;5086314;28;27523;-65
2021/03/08 00:37:13;;;;;;;16.75;10.00;;;3.00;63.20;;;;;;5087008;28;27417;-65
2021/03/08 00:40:01;;;;;;;16.63;9.95;;;2.90;63.10;;;;;;5096793;28;27431;-66
2021/03/08 00:42:46;;;;;;;15.75;9.57;;;2.90;63.30;;;;;;5107701;28;27356;-66
2021/03/08 00:45:31;;;;;;;16.38;10.00;;;2.90;63.30;;;;;;5088904;28;27333;-65
2021/03/08 00:48:20;;;;;;;19.63;10.40;;;2.80;63.30;;;;;;5106659;28;27430;-66
2021/03/08 00:51:06;;;;;;;21.15;11.48;;;2.80;63.30;;;;;;5103927;28;27441;-67
2021/03/08 00:53:50;;;;;;;15.63;10.13;;;2.70;63.50;;;;;;5104254;28;26980;-66
2021/03/08 00:56:35;;;;;;;20.25;10.95;;;2.70;63.40;;;;;;5104132;28;27470;-67
2021/03/08 00:59:19;;;;;;;15.27;9.80;;;2.70;63.40;;;;;;5107359;28;27352;-66
2021/03/08 01:02:04;;;;;;;19.10;10.93;;;2.60;63.40;;;;;;5103759;28;27332;-67
2021/03/08 01:04:49;;;;;;;16.52;10.25;;;2.60;63.50;;;;;;5104067;28;27400;-66
2021/03/08 01:07:35;;;;;;;19.35;12.07;;;2.60;63.50;;;;;;5088842;28;27432;-67
2021/03/08 01:10:30;;;;;;;18.55;10.55;;;2.50;63.50;;;;;;5103314;28;27415;-66
2021/03/08 01:13:18;;;;;;;22.98;11.88;;;2.50;63.50;;;;;;5103785;28;27424;-67
2021/03/08 01:16:06;;;;;;;19.90;11.48;;;2.50;63.60;;;;;;5089258;28;27368;-66
2021/03/08 01:18:50;;;;;;;20.38;12.05;;;2.40;63.60;;;;;;5103580;28;27381;-65
2021/03/08 01:21:34;;;;;;;23.27;11.85;;;2.40;63.60;;;;;;5106820;27;27462;-67
2021/03/08 01:24:19;;;;;;;20.60;11.73;;;2.30;63.60;;;;;;5106893;28;27416;-67
2021/03/08 01:27:04;;;;;;;19.13;10.82;;;2.30;63.50;;;;;;5106789;28;27488;-66
2021/03/08 01:29:48;;;;;;;19.27;12.07;;;2.30;63.60;;;;;;5106434;28;27569;-66
2021/03/08 01:32:33;;;;;;;19.33;11.80;;;2.30;63.70;;;;;;5106803;28;27864;-66
2021/03/08 01:35:17;;;;;;;18.45;10.60;;;2.20;63.60;;;;;;5106527;28;27484;-66
2021/03/08 01:38:02;;;;;;;18.55;11.13;;;2.20;63.60;;;;;;5106801;28;27403;-67
2021/03/08 01:40:47;;;;;;;18.98;11.02;;;2.10;63.60;;;;;;5105057;28;27470;-66
2021/03/08 01:43:31;;;;;;;16.95;10.45;;;2.10;63.70;;;;;;5103132;28;27888;-66
2021/03/08 01:46:16;;;;;;;20.50;11.13;;;2.10;63.80;;;;;;5106614;28;27615;-66
2021/03/08 01:49:01;;;;;;;19.42;10.80;;;2.00;63.90;;;;;;5106212;28;27471;-65
2021/03/08 01:51:45;;;;;;;17.80;10.80;;;2.00;63.80;;;;;;5106621;28;27478;-66
2021/03/08 01:54:30;;;;;;;18.88;10.77;;;1.90;63.90;;;;;;5091402;28;27486;-67
2021/03/08 01:57:14;;;;;;;19.67;11.48;;;1.90;63.80;;;;;;5091302;28;27381;-67
2021/03/08 01:59:59;;;;;;;17.63;10.30;;;1.90;63.80;;;;;;5077031;28;27407;-67
2021/03/08 02:02:43;;;;;;;16.13;9.82;;;1.90;63.90;;;;;;5091118;28;27454;-66
2021/03/08 02:05:30;;;;;;;17.58;10.18;;;1.90;64.00;;;;;;5090980;28;27396;-67
2021/03/08 02:08:18;;;;;;;16.83;10.75;;;1.80;63.80;;;;;;5102938;28;27349;-65
2021/03/08 02:11:03;;;;;;;18.40;10.55;;;1.80;63.90;;;;;;5106003;28;27408;-67
2021/03/08 02:14:10;;;;;;;16.45;10.30;;;1.70;63.80;;;;;;5105943;28;27420;-66
2021/03/08 02:17:01;;;;;;;18.10;9.82;;;1.70;63.80;;;;;;5106123;28;27372;-66
2021/03/08 02:20:23;;;;;;;17.35;10.40;;;1.70;63.80;;;;;;5106098;28;27391;-66
2021/03/08 02:23:12;;;;;;;17.60;10.82;;;1.60;63.80;;;;;;5105817;28;27463;-67
2021/03/08 02:26:09;;;;;;;16.08;10.18;;;1.60;64.00;;;;;;5090897;28;27482;-66
2021/03/08 02:29:32;;;;;;;16.92;10.27;;;1.60;64.00;;;;;;5105853;28;27842;-63
2021/03/08 02:32:21;;;;;;;17.17;10.10;;;1.60;64.00;;;;;;5084474;28;27805;-62
2021/03/08 02:35:14;;;;;;;16.83;10.10;;;1.50;64.00;;;;;;5105859;28;27352;-66
2021/03/08 02:38:07;;;;;;;18.20;10.23;;;1.50;64.00;;;;;;5091152;28;27448;-62
2021/03/08 02:40:56;;;;;;;19.27;10.77;;;1.50;64.10;;;;;;5088742;28;27430;-66
2021/03/08 02:43:44;;;;;;;17.23;10.13;;;1.40;64.10;;;;;;5090635;28;27435;-66
2021/03/08 02:46:35;;;;;;;18.55;11.20;;;1.40;64.00;;;;;;5105449;28;27416;-67
2021/03/08 02:49:24;;;;;;;19.13;10.27;;;1.40;64.10;;;;;;5105543;28;27469;-67
2021/03/08 02:52:09;;;;;;;17.73;10.18;;;1.30;64.10;;;;;;5090730;28;27365;-62
2021/03/08 02:54:55;;;;;;;15.88;9.70;;;1.30;64.10;;;;;;5105591;28;27566;-66
2021/03/08 02:57:40;;;;;;;17.20;11.15;;;1.30;64.10;;;;;;5090487;28;27393;-66
2021/03/08 03:00:24;;;;;;;15.45;10.07;;;1.20;64.10;;;;;;5105511;28;27343;-66
2021/03/08 03:03:09;;;;;;;16.45;9.95;;;1.20;64.20;;;;;;5076098;28;27334;-66
2021/03/08 03:05:54;;;;;;;19.77;10.60;;;1.20;64.10;;;;;;5075494;28;27439;-65
2021/03/08 03:08:39;;;;;;;16.67;9.98;;;1.20;64.10;;;;;;5090234;28;27380;-67
2021/03/08 03:11:24;;;;;;;14.63;9.07;;;1.10;64.10;;;;;;5089863;28;27388;-67
2021/03/08 03:14:09;;;;;;;16.33;10.25;;;1.10;64.30;;;;;;5090114;28;27392;-67
2021/03/08 03:16:57;;;;;;;18.08;10.60;;;1.10;64.00;;;;;;5075744;28;27325;-66
2021/03/08 03:19:44;;;;;;;16.88;10.43;;;1.00;64.10;;;;;;5076070;28;27439;-67
2021/03/08 03:22:29;;;;;;;16.15;10.57;;;1.00;64.20;;;;;;5104896;28;27450;-66
2021/03/08 03:25:16;;;;;;;16.25;9.45;;;1.00;64.20;;;;;;5089979;28;27474;-66
2021/03/08 03:28:01;;;;;;;15.95;10.15;;;0.90;64.20;;;;;;5090109;28;27319;-66
2021/03/08 03:30:45;;;;;;;17.50;10.45;;;0.90;64.20;;;;;;5104557;28;27391;-67
2021/03/08 03:33:31;;;;;;;17.63;10.18;;;0.90;64.30;;;;;;5089767;28;27407;-66
2021/03/08 03:36:16;;;;;;;15.90;10.30;;;0.90;64.30;;;;;;5075433;28;27869;-66
2021/03/08 03:39:00;;;;;;;17.17;10.32;;;0.90;64.50;;;;;;5104316;28;27329;-63
2021/03/08 03:41:45;;;;;;;16.17;11.05;;;0.80;64.30;;;;;;5089833;28;27422;-67
2021/03/08 03:44:30;;;;;;;16.85;10.40;;;0.80;64.50;;;;;;5101722;28;27400;-67
2021/03/08 03:47:15;;;;;;;19.23;11.07;;;0.80;64.40;;;;;;5104618;28;27470;-67
2021/03/08 03:49:59;;;;;;;17.30;9.48;;;0.80;64.50;;;;;;5104161;28;27436;-67
2021/03/08 03:52:44;;;;;;;15.68;9.98;;;0.70;64.50;;;;;;5072068;28;27417;-67
2021/03/08 03:55:29;;;;;;;19.83;10.07;;;0.70;64.50;;;;;;5089524;28;27398;-67
2021/03/08 03:58:28;;;;;;;15.05;10.02;;;0.70;64.60;;;;;;5104193;28;27460;-67
2021/03/08 04:01:23;;;;;;;15.30;9.10;;;0.70;64.60;;;;;;5104640;28;27325;-66
2021/03/08 04:04:14;;;;;;;16.27;9.40;;;0.70;64.50;;;;;;5090272;28;27372;-67
2021/03/08 04:06:59;;;;;;;17.20;10.13;;;0.60;64.40;;;;;;5104524;28;27406;-66
2021/03/08 04:09:47;;;;;;;15.18;9.82;;;0.60;64.30;;;;;;5089091;28;27936;-66
2021/03/08 04:12:34;;;;;;;18.88;10.23;;;0.60;64.50;;;;;;5104210;28;27422;-66
2021/03/08 04:15:19;;;;;;;18.15;9.98;;;0.60;64.40;;;;;;5104517;28;27307;-67
2021/03/08 04:18:04;;;;;;;15.77;9.70;;;0.60;64.50;;;;;;5104131;28;27321;-67
2021/03/08 04:20:50;;;;;;;16.95;9.90;;;0.50;64.40;;;;;;5088960;28;27960;-67
2021/03/08 04:23:34;;;;;;;15.90;9.38;;;0.50;64.50;;;;;;5088883;28;27431;-68
2021/03/08 04:26:18;;;;;;;15.98;9.63;;;0.50;64.40;;;;;;5088690;28;27368;-67
2021/03/08 04:29:03;;;;;;;20.52;9.73;;;0.50;64.50;;;;;;5088666;28;27416;-67
2021/03/08 04:31:47;;;;;;;17.73;10.40;;;0.40;64.50;;;;;;5089073;28;27388;-67
2021/03/08 04:34:32;;;;;;;17.55;10.35;;;0.40;64.60;;;;;;5071282;28;27391;-67
2021/03/08 04:37:16;;;;;;;14.55;9.32;;;0.40;64.60;;;;;;5089123;28;27383;-67
2021/03/08 04:40:03;;;;;;;18.65;10.15;;;0.40;64.50;;;;;;5103541;28;27326;-67
2021/03/08 04:42:48;;;;;;;15.05;9.20;;;0.30;64.50;;;;;;5088638;28;27405;-67
2021/03/08 04:45:32;;;;;;;17.80;10.13;;;0.30;64.60;;;;;;5088996;28;27400;-66
2021/03/08 04:48:16;;;;;;;16.90;9.90;;;0.30;64.50;;;;;;5074622;28;27387;-68
2021/03/08 04:51:04;;;;;;;18.58;10.30;;;0.30;64.60;;;;;;5089015;28;27313;-67
2021/03/08 04:53:49;;;;;;;16.48;9.82;;;0.30;64.60;;;;;;5103436;28;27881;-67
2021/03/08 04:56:34;;;;;;;16.17;9.65;;;0.20;64.60;;;;;;5103720;27;27410;-67
2021/03/08 04:59:18;;;;;;;18.38;9.30;;;0.20;64.60;;;;;;5107086;28;27395;-67
2021/03/08 05:02:03;;;;;;;15.07;9.70;;;0.20;64.60;;;;;;5077590;28;27396;-68
2021/03/08 05:04:49;;;;;;;13.52;9.15;;;0.10;64.50;;;;;;5092106;28;27396;-68
2021/03/08 05:07:38;;;;;;;15.07;9.27;;;0.20;64.60;;;;;;5092067;28;27352;-68
2021/03/08 05:10:22;;;;;;;15.07;9.15;;;0.10;64.50;;;;;;5107052;28;27521;-67
2021/03/08 05:13:10;;;;;;;14.77;8.82;;;0.10;64.50;;;;;;5092039;28;27416;-67
2021/03/08 05:15:55;;;;;;;17.13;10.35;;;0.10;64.60;;;;;;5107211;28;27404;-66
2021/03/08 05:18:39;;;;;;;18.02;10.32;;;0.10;64.60;;;;;;5088762;28;27451;-67
2021/03/08 05:21:24;;;;;;;16.15;9.60;;;0.10;64.70;;;;;;5077349;28;27515;-66
2021/03/08 05:24:09;;;;;;;14.55;9.18;;;0.10;64.70;;;;;;5091707;28;26952;-66
2021/03/08 05:26:53;;;;;;;14.18;9.10;;;0.00;64.70;;;;;;5091611;28;27495;-68
2021/03/08 05:29:41;;;;;;;14.75;9.18;;;0.00;64.80;;;;;;5091589;28;27577;-67
2021/03/08 05:32:30;;;;;;;15.07;10.35;;;0.00;64.80;;;;;;5106714;28;27343;-67
2021/03/08 05:35:15;;;;;;;16.55;9.98;;;0.00;64.80;;;;;;5091842;28;26873;-67
2021/03/08 05:38:00;;;;;;;15.13;9.55;;;0.00;64.80;;;;;;5077216;28;27496;-67
2021/03/08 05:40:57;;;;;;;17.67;9.93;;;-0.10;64.80;;;;;;5106132;28;27383;-66
2021/03/08 05:43:44;;;;;;;15.82;9.18;;;-0.10;64.80;;;;;;5106749;28;27373;-67
2021/03/08 05:47:01;;;;;;;15.82;9.35;;;-0.10;64.80;;;;;;5077571;28;27452;-68
2021/03/08 05:50:20;;;;;;;15.40;8.93;;;-0.10;64.70;;;;;;5105773;28;27442;-66
2021/03/08 05:53:17;;;;;;;17.10;10.38;;;-0.10;64.80;;;;;;5106638;28;27399;-66
2021/03/08 05:56:23;;;;;;;12.60;8.50;;;-0.10;64.70;;;;;;5092349;28;27432;-67
2021/03/08 05:59:21;;;;;;;22.55;10.88;;;-0.10;64.70;;;;;;5106338;28;27415;-68
2021/03/08 06:02:24;;;;;;;17.50;10.27;;;-0.10;64.70;;;;;;5106256;28;27391;-66
2021/03/08 06:05:38;;;;;;;17.63;9.77;;;-0.10;64.70;;;;;;5091046;28;27427;-68
2021/03/08 06:08:38;;;;;;;19.10;9.55;;;-0.10;64.60;;;;;;5105717;27;27453;-68
2021/03/08 06:11:23;;;;;;;15.95;10.20;;;-0.10;64.50;;;;;;5106408;28;27394;-67
2021/03/08 06:14:08;;;;;;;18.05;9.30;;;0.00;64.50;;;;;;5105964;28;27332;-67
2021/03/08 06:16:53;;;;;;;20.20;10.23;;;-0.10;64.40;;;;;;5076415;28;27352;-67
2021/03/08 06:19:38;;;;;;;18.65;10.07;;;0.00;64.40;;;;;;5090866;28;27459;-67
2021/03/08 06:22:22;;;;;;;15.85;9.77;;;0.00;64.20;;;;;;5105918;28;27333;-67
2021/03/08 06:25:07;;;;;;;16.55;10.23;;;0.10;64.30;;;;;;5076792;28;27846;-67
2021/03/08 06:27:52;;;;;;;17.50;10.23;;;0.10;64.20;;;;;;5076611;28;27325;-67
2021/03/08 06:30:36;;;;;;;17.80;10.45;;;0.10;64.00;;;;;;5090490;28;27419;-67
2021/03/08 06:33:21;;;;;;;17.98;9.63;;;0.20;64.10;;;;;;5102724;28;27326;-62
2021/03/08 06:36:06;;;;;;;19.58;11.35;;;0.20;63.90;;;;;;5090806;28;27392;-62
2021/03/08 06:38:50;;;;;;;19.73;11.57;;;0.20;64.00;;;;;;5090410;28;27340;-63
2021/03/08 06:41:35;;;;;;;19.65;11.23;;;0.30;63.80;;;;;;5105876;28;27428;-67
2021/03/08 06:44:19;;;;;;;19.92;10.95;;;0.30;63.70;;;;;;5089847;28;27515;-68
2021/03/08 06:47:05;;;;;;;20.00;11.00;;;0.40;63.70;;;;;;5105631;28;27400;-68
2021/03/08 06:49:50;;;;;;;21.23;11.07;;;0.40;63.50;;;;;;5086636;28;27463;-67
2021/03/08 06:52:44;;;;;;;23.38;12.40;;;0.40;63.50;;;;;;5105383;28;27474;-66
2021/03/08 06:55:28;;;;;;;22.25;12.35;;;0.50;63.50;;;;;;5105314;28;27455;-68
2021/03/08 06:58:17;;;;;;;23.30;11.85;;;0.60;63.50;;;;;;5105572;28;27493;-68
2021/03/08 07:01:02;;;;;;;22.05;13.15;;;0.60;63.40;;;;;;5105600;28;27333;-68
2021/03/08 07:03:46;;;;;;;20.98;12.57;;;0.70;63.30;;;;;;5090469;28;27414;-67
2021/03/08 07:06:31;;;;;;;23.42;12.43;;;0.70;63.20;;;;;;5105504;28;27316;-67
2021/03/08 07:09:15;;;;;;;22.50;13.18;;;0.80;63.20;;;;;;5104976;28;27351;-68
2021/03/08 07:12:05;;;;;;;20.35;12.30;;;0.90;63.20;;;;;;5089786;28;27333;-68
2021/03/08 07:15:05;;;;;;;23.45;12.85;;;0.90;63.10;;;;;;5105398;28;27352;-68
2021/03/08 07:17:50;;;;;;;20.20;12.38;;;1.00;63.10;;;;;;5105218;28;27416;-68
2021/03/08 07:20:34;;;;;;;21.50;12.60;;;1.10;63.00;;;;;;5104349;28;27411;-68
2021/03/08 07:23:24;;;;;;;23.45;12.75;;;1.40;62.40;;;;;;5105198;28;27416;-67
2021/03/08 07:26:09;;;;;;;24.80;13.43;;;1.90;61.10;;;;;;5105027;28;27423;-68
2021/03/08 07:29:10;;;;;;;21.40;12.35;;;2.50;59.40;;;;;;5104819;28;27388;-62
2021/03/08 07:31:56;;;;;;;21.65;12.25;;;3.20;58.00;;;;;;5104771;28;27435;-68
2021/03/08 07:34:45;;;;;;;20.63;12.60;;;3.80;56.60;;;;;;5086614;28;27380;-67
2021/03/08 07:37:43;;;;;;;20.85;12.05;;;4.30;55.30;;;;;;5086743;28;27317;-68
2021/03/08 07:40:28;;;;;;;21.88;11.73;;;4.90;54.00;;;;;;5102774;28;27450;-67
2021/03/08 07:43:23;;;;;;;18.10;11.80;;;5.40;52.90;;;;;;5103987;28;27617;-67
2021/03/08 07:46:30;;;;;;;17.52;10.93;;;5.90;51.70;;;;;;5104839;28;27439;-67
2021/03/08 07:49:15;;;;;;;20.25;11.63;;;6.50;50.80;;;;;;5104450;28;27456;-68
2021/03/08 07:52:07;;;;;;;17.27;11.43;;;6.90;49.70;;;;;;5100480;28;27419;-68
2021/03/08 07:54:52;;;;;;;18.83;11.55;;;7.50;48.90;;;;;;5104785;28;27450;-68
2021/03/08 07:57:36;;;;;;;19.20;11.68;;;7.90;48.20;;;;;;5104728;28;27521;-69
2021/03/08 08:00:21;;;;;;;17.95;11.52;;;8.40;47.50;;;;;;5089371;28;27443;-69
2021/03/08 08:03:06;;;;;;;16.17;11.38;;;8.90;46.90;;;;;;5104402;28;27400;-69
2021/03/08 08:05:53;;;;;;;17.63;11.40;;;9.30;46.20;;;;;;5104211;28;27960;-67
2021/03/08 08:08:49;;;;;;;17.55;11.43;;;9.70;45.70;;;;;;5104148;28;27470;-67
2021/03/08 08:11:33;;;;;;;16.27;10.68;;;10.10;45.30;;;;;;5101089;28;27478;-66
2021/03/08 08:14:18;;;;;;;19.00;11.85;;;10.50;45.00;;;;;;5085773;28;27407;-67
2021/03/08 08:17:03;;;;;;;16.83;11.60;;;10.80;44.50;;;;;;5104168;28;27873;-67
2021/03/08 08:19:49;;;;;;;18.27;11.23;;;11.20;44.50;;;;;;5104117;28;27482;-69
2021/03/08 08:22:34;;;;;;;15.90;11.30;;;11.60;44.30;;;;;;5089344;28;27432;-66
2021/03/08 08:25:18;;;;;;;17.25;11.30;;;12.10;44.00;;;;;;5085601;28;27421;-67
2021/03/08 08:28:03;;;;;;;15.32;11.48;;;12.50;43.70;;;;;;5104227;28;27408;-67
2021/03/08 08:30:59;;;;;;;18.95;11.80;;;12.90;43.50;;;;;;5104127;28;27456;-66
2021/03/08 08:33:44;;;;;;;14.57;10.55;;;13.30;43.00;;;;;;5092203;28;27421;-67
2021/03/08 08:36:28;;;;;;;19.85;12.02;;;13.70;42.60;;;;;;5107822;28;27453;-67
2021/03/08 08:39:13;;;;;;;18.55;11.77;;;14.00;42.40;;;;;;5107174;28;27865;-67
2021/03/08 08:42:14;;;;;;;16.80;12.15;;;14.40;42.10;;;;;;5107433;28;27518;-66
2021/03/08 08:44:59;;;;;;;18.90;12.30;;;14.80;41.50;;;;;;5107766;28;27378;-66
2021/03/08 08:47:44;;;;;;;15.35;12.13;;;15.10;41.90;;;;;;5107637;28;27371;-67
2021/03/08 08:50:28;;;;;;;16.85;12.25;;;15.50;40.70;;;;;;5077772;28;28009;-67
2021/03/08 08:53:22;;;;;;;18.35;13.15;;;15.80;40.20;;;;;;5107491;28;27399;-67
2021/03/08 08:56:07;;;;;;;15.95;12.13;;;16.30;39.60;;;;;;5092138;28;27322;-66
2021/03/08 08:58:53;;;;;;;17.02;11.93;;;16.70;39.10;;;;;;5103997;28;27331;-66
2021/03/08 09:01:39;;;;;;;18.30;12.32;;;17.10;38.70;;;;;;5089223;28;27382;-66
2021/03/08 09:04:33;;;;;;;14.63;11.95;;;17.40;38.20;;;;;;5092617;28;27365;-66
2021/03/08 09:07:19;;;;;;;15.75;11.63;;;17.80;37.80;;;;;;5107186;28;27414;-65
2021/03/08 09:10:04;;;;;;;14.20;11.63;;;18.20;37.30;;;;;;5107145;28;27348;-65
2021/03/08 09:12:48;;;;;;;16.25;12.13;;;18.60;36.70;;;;;;5107039;28;27367;-65
2021/03/08 09:15:33;;;;;;;19.33;11.45;;;18.90;36.30;;;;;;5077804;28;27363;-65
2021/03/08 09:18:33;;;;;;;17.60;12.43;;;19.20;35.90;;;;;;5107263;28;27343;-66
2021/03/08 09:21:19;;;;;;;13.88;11.70;;;19.50;35.50;;;;;;5093452;28;27542;-66
2021/03/08 09:24:30;;;;;;;21.52;12.35;;;19.80;35.00;;;;;;5106718;28;27431;-65
2021/03/08 09:27:27;;;;;;;16.42;12.85;;;20.10;34.50;;;;;;5091257;28;27578;-65
2021/03/08 09:30:19;;;;;;;17.15;11.88;;;20.40;34.20;;;;;;5103544;28;27412;-65
2021/03/08 09:33:06;;;;;;;16.23;12.25;;;20.70;33.80;;;;;;5106752;28;27383;-65
2021/03/08 09:35:53;;;;;;;16.27;12.23;;;21.00;33.40;;;;;;5106896;28;27428;-65
2021/03/08 09:38:38;;;;;;;15.57;12.05;;;21.30;33.10;;;;;;5106883;28;27416;-65
2021/03/08 09:41:27;;;;;;;16.02;12.40;;;21.50;33.40;;;;;;5106052;28;27419;-63
2021/03/08 09:44:12;;;;;;;16.30;12.40;;;21.80;32.30;;;;;;5105976;27;27375;-65
2021/03/08 09:46:56;;;;;;;15.40;12.93;;;22.00;32.10;;;;;;5106800;28;27405;-64
2021/03/08 09:49:54;;;;;;;12.65;11.15;;;22.20;31.80;;;;;;5106463;28;27341;-65
2021/03/08 09:52:40;;;;;;;16.17;12.77;;;22.40;31.30;;;;;;5088345;28;26885;-63
2021/03/08 09:55:26;;;;;;;13.52;11.15;;;22.70;31.10;;;;;;5106243;28;27374;-64
2021/03/08 09:58:18;;;;;;;12.63;10.93;;;22.80;30.90;;;;;;5106253;28;27896;-64
2021/03/08 10:01:16;;;;;;;12.88;11.40;;;23.00;30.70;;;;;;5106533;28;27328;-64
2021/03/08 10:04:01;;;;;;;13.75;10.73;;;23.20;30.30;;;;;;5106235;28;27497;-64
2021/03/08 10:06:46;;;;;;;15.60;10.20;;;23.50;30.20;;;;;;5106247;28;27424;-64
2021/03/08 10:09:31;;;;;;;11.43;9.32;;;23.70;30.00;;;;;;5090909;28;27993;-64
2021/03/08 10:12:23;;;;;;;10.73;9.10;;;23.80;29.70;;;;;;5106073;28;27407;-64
2021/03/08 10:15:12;;;;;;;11.48;8.90;;;24.00;29.40;;;;;;5106393;28;27321;-64
2021/03/08 10:17:59;;;;;;;9.23;8.23;;;24.20;29.10;;;;;;5105956;28;27428;-63
2021/03/08 10:20:55;;;;;;;7.75;6.80;;;24.40;29.00;;;;;;5087752;28;27473;-63
2021/03/08 10:23:40;;;;;;;8.98;7.20;;;24.50;28.80;;;;;;5102506;28;27542;-64
2021/03/08 10:26:24;;;;;;;9.32;7.93;;;24.70;28.40;;;;;;5105857;28;27490;-63
2021/03/08 10:29:09;;;;;;;9.23;7.65;;;24.80;28.20;;;;;;5076180;28;27476;-63
2021/03/08 10:31:54;;;;;;;7.78;6.38;;;25.00;28.60;;;;;;5105965;28;27403;-63
2021/03/08 10:34:39;;;;;;;8.27;6.72;;;25.10;28.00;;;;;;5090526;28;27406;-63
2021/03/08 10:37:23;;;;;;;10.02;6.25;;;25.30;27.70;;;;;;5090733;28;27447;-62
2021/03/08 10:40:08;;;;;;;7.80;6.43;;;25.50;27.20;;;;;;5082182;28;27521;-63
2021/03/08 10:42:53;;;;;;;9.50;6.82;;;25.70;27.30;;;;;;5085209;28;27498;-63
2021/03/08 10:45:37;;;;;;;7.00;5.53;;;25.80;26.90;;;;;;5070382;28;27437;-63
2021/03/08 10:48:22;;;;;;;7.13;6.03;;;26.00;26.80;;;;;;5084459;28;27428;-63
2021/03/08 10:51:07;;;;;;;8.15;6.30;;;26.10;26.50;;;;;;5084603;28;27472;-63
2021/03/08 10:54:01;;;;;;;6.70;5.95;;;26.20;25.70;;;;;;5084397;28;27428;-63
2021/03/08 10:56:45;;;;;;;8.88;5.40;;;26.30;25.50;;;;;;5084196;28;27413;-63
2021/03/08 10:59:30;;;;;;;6.82;5.63;;;26.40;25.10;;;;;;5081942;28;27344;-63
2021/03/08 11:02:16;;;;;;;6.95;5.32;;;26.50;24.80;;;;;;5084930;28;27347;-63
2021/03/08 11:05:13;;;;;;;8.48;5.40;;;26.60;25.00;;;;;;5080880;28;27964;-63
2021/03/08 11:07:59;;;;;;;6.68;4.80;;;26.50;25.20;;;;;;5083976;28;27487;-63
2021/03/08 11:10:44;;;;;;;6.70;5.53;;;26.50;25.20;;;;;;5084458;28;27477;-62
2021/03/08 11:13:32;;;;;;;5.82;5.22;;;26.40;24.90;;;;;;5080926;28;27421;-63
2021/03/08 11:16:16;;;;;;;5.57;4.65;;;26.20;25.00;;;;;;5084127;28;27379;-63
2021/03/08 11:19:21;;;;;;;5.57;4.78;;;26.30;25.20;;;;;;5083911;28;27419;-63
2021/03/08 11:22:07;;;;;;;5.28;4.75;;;26.40;25.20;;;;;;5084661;28;27404;-63
2021/03/08 11:24:52;;;;;;;6.18;4.85;;;26.60;25.00;;;;;;5084639;28;27371;-63
2021/03/08 11:27:46;;;;;;;7.95;5.32;;;26.80;25.00;;;;;;5084747;28;27310;-63
2021/03/08 11:30:31;;;;;;;5.65;4.90;;;27.00;25.10;;;;;;5083431;28;27391;-63
2021/03/08 11:33:16;;;;;;;6.00;4.50;;;27.20;25.30;;;;;;5084489;28;27331;-63
2021/03/08 11:36:01;;;;;;;5.93;5.15;;;27.30;25.30;;;;;;5084392;28;27372;-63
2021/03/08 11:38:48;;;;;;;5.47;4.80;;;27.50;24.60;;;;;;5084354;28;27443;-63
2021/03/08 11:41:33;;;;;;;6.40;5.40;;;27.60;24.50;;;;;;5064199;28;27460;-62
2021/03/08 11:44:18;;;;;;;5.45;4.72;;;27.70;24.20;;;;;;5064188;28;27367;-63
2021/03/08 11:47:03;;;;;;;10.27;5.55;;;27.70;24.00;;;;;;5064338;28;26920;-63
2021/03/08 11:49:48;;;;;;;6.38;5.20;;;27.80;24.10;;;;;;5059794;28;27330;-63
2021/03/08 11:52:32;;;;;;;5.53;4.88;;;27.90;24.10;;;;;;5064184;28;27349;-63
2021/03/08 11:55:17;;;;;;;5.57;4.78;;;27.90;24.20;;;;;;5063866;28;27372;-62
2021/03/08 11:58:02;;;;;;;7.30;4.60;;;28.10;24.30;;;;;;5063970;28;27383;-63
2021/03/08 12:00:46;;;;;;;5.28;4.78;;;28.20;24.30;;;;;;5045831;28;27326;-63
2021/03/08 12:03:31;;;;;;;6.07;4.78;;;28.30;24.40;;;;;;5064046;28;27439;-62
2021/03/08 12:06:15;;;;;;;5.68;4.07;;;28.40;24.10;;;;;;5064768;28;27436;-63
2021/03/08 12:09:00;;;;;;;5.60;4.50;;;28.40;24.00;;;;;;5067439;28;27413;-63
2021/03/08 12:11:44;;;;;;;5.93;4.05;;;28.40;23.60;;;;;;5067421;28;27416;-63
2021/03/08 12:14:28;;;;;;;6.50;4.70;;;28.40;23.40;;;;;;5067181;28;27421;-63
2021/03/08 12:17:13;;;;;;;4.18;3.78;;;28.30;23.10;;;;;;5049349;28;27619;-63
2021/03/08 12:19:58;;;;;;;6.60;4.55;;;28.30;23.40;;;;;;5067168;28;27448;-63
2021/03/08 12:22:42;;;;;;;4.85;4.22;;;28.30;23.60;;;;;;5067143;28;27450;-62
2021/03/08 12:25:28;;;;;;;5.53;4.20;;;28.30;23.80;;;;;;5067438;28;27529;-63
2021/03/08 12:28:12;;;;;;;5.53;4.63;;;28.20;24.00;;;;;;5067352;28;27472;-62
2021/03/08 12:30:57;;;;;;;4.75;3.78;;;28.30;24.20;;;;;;5066683;28;27481;-63
2021/03/08 12:33:41;;;;;;;4.38;3.88;;;28.40;24.40;;;;;;5067106;28;27423;-62
2021/03/08 12:36:26;;;;;;;5.00;3.85;;;28.40;24.40;;;;;;5066941;28;27486;-63
2021/03/08 12:39:11;;;;;;;5.03;3.40;;;28.40;24.30;;;;;;5069284;28;27482;-62
2021/03/08 12:41:55;;;;;;;5.32;3.60;;;28.40;24.00;;;;;;5107733;28;27312;-63
2021/03/08 12:44:40;;;;;;;6.18;3.97;;;28.30;24.00;;;;;;5107373;28;27328;-63
2021/03/08 12:47:24;;;;;;;4.65;3.92;;;28.30;24.10;;;;;;5107604;28;27321;-63
2021/03/08 12:50:09;;;;;;;7.88;3.90;;;28.20;24.10;;;;;;5107449;28;27411;-63
2021/03/08 12:52:54;;;;;;;8.18;4.32;;;28.10;23.50;;;;;;5107356;28;27393;-63
2021/03/08 12:55:38;;;;;;;6.03;4.13;;;28.00;23.70;;;;;;5107414;28;27320;-62
2021/03/08 12:58:23;;;;;;;6.38;5.30;;;27.90;23.80;;;;;;5088847;28;27376;-62
2021/03/08 13:01:08;;;;;;;5.05;4.30;;;27.80;23.60;;;;;;5107448;28;27357;-62
2021/03/08 13:03:52;;;;;;;9.38;4.50;;;27.80;23.70;;;;;;5107486;28;27392;-62
2021/03/08 13:06:37;;;;;;;6.00;4.78;;;27.60;23.50;;;;;;5091257;28;27340;-62
2021/03/08 13:09:21;;;;;;;7.03;4.70;;;27.50;23.20;;;;;;5107129;28;27371;-63
2021/03/08 13:12:06;;;;;;;4.97;4.35;;;27.40;23.10;;;;;;5091809;28;27444;-62
2021/03/08 13:14:51;;;;;;;5.78;4.22;;;27.30;23.80;;;;;;5107117;28;27432;-63
2021/03/08 13:17:36;;;;;;;7.32;3.92;;;27.30;24.10;;;;;;5091176;27;27866;-63
2021/03/08 13:20:20;;;;;;;10.32;3.92;;;27.10;24.30;;;;;;5107081;28;27478;-63
2021/03/08 13:23:05;;;;;;;6.40;3.80;;;27.10;24.50;;;;;;5107239;28;27476;-63
2021/03/08 13:25:49;;;;;;;5.28;3.85;;;27.00;24.60;;;;;;5107028;28;27467;-63
2021/03/08 13:28:34;;;;;;;5.22;4.50;;;26.90;24.10;;;;;;5091704;28;27451;-62
2021/03/08 13:31:19;;;;;;;5.93;4.22;;;26.80;23.70;;;;;;5106557;28;27545;-63
2021/03/08 13:34:03;;;;;;;5.18;3.50;;;26.70;24.00;;;;;;5106457;28;27505;-63
2021/03/08 13:36:48;;;;;;;5.45;4.72;;;26.60;24.10;;;;;;5106758;28;27431;-63
2021/03/08 13:39:33;;;;;;;9.93;4.32;;;26.60;24.00;;;;;;5091052;28;27412;-63
2021/03/08 13:42:18;;;;;;;4.82;4.15;;;26.50;24.20;;;;;;5087959;28;27392;-63
2021/03/08 13:45:03;;;;;;;7.82;4.30;;;26.40;24.30;;;;;;5106641;28;27412;-62
2021/03/08 13:47:48;;;;;;;8.73;4.68;;;26.30;24.50;;;;;;5106254;28;27565;-63
2021/03/08 13:50:33;;;;;;;5.50;4.30;;;26.20;24.30;;;;;;5103405;28;27966;-62
2021/03/08 13:53:17;;;;;;;4.03;3.45;;;26.10;24.20;;;;;;5106190;28;27542;-63
2021/03/08 13:56:02;;;;;;;5.30;4.28;;;25.90;24.70;;;;;;5106496;28;27411;-63
2021/03/08 13:58:47;;;;;;;5.47;4.82;;;25.80;24.80;;;;;;5090783;28;27502;-63
2021/03/08 14:01:31;;;;;;;5.38;4.15;;;25.60;24.70;;;;;;5106042;28;27435;-62
2021/03/08 14:04:16;;;;;;;5.20;3.78;;;25.50;24.90;;;;;;5105487;28;27405;-63
2021/03/08 14:07:00;;;;;;;6.32;3.83;;;25.30;25.00;;;;;;5106260;28;27371;-62
2021/03/08 14:09:46;;;;;;;6.32;4.55;;;25.20;25.20;;;;;;5106038;28;27352;-63
2021/03/08 14:12:30;;;;;;;5.57;4.07;;;25.10;25.10;;;;;;5105917;28;27348;-62
2021/03/08 14:15:15;;;;;;;5.28;4.53;;;24.90;25.10;;;;;;5106247;28;27372;-63
2021/03/08 14:18:00;;;;;;;6.18;4.38;;;24.80;24.60;;;;;;5106704;28;27427;-63
2021/03/08 14:20:44;;;;;;;5.70;4.72;;;24.70;24.90;;;;;;5106437;28;27321;-63
2021/03/08 14:23:28;;;;;;;5.63;4.10;;;24.50;24.70;;;;;;5090930;28;27842;-62